Time;durP1;ratioP1;P1;durP2;ratioP2;P2;SDS_P1;SDS_P2;PMS_P1;PMS_P2;Temp;Humidity;BMP_temperature;BMP_pressure;BME280_temperature;BME280_humidity;BME280_pressure;Samples;Min_cycle;Max_cycle;Signal;HPM_P1;HPM_P2
2021/11/22 00:02:00;;;;;;;;;;;;;;;-144.99;100.00;52668.22;5057007;28;20035;-63
2021/11/22 00:04:26;;;;;;;;;;;;;;;-144.99;100.00;52676.38;5060377;28;20411;-63
2021/11/22 00:06:53;;;;;;;;;;;;;;;-144.99;100.00;52623.38;5063642;28;20026;-63
2021/11/22 00:09:21;;;;;;;;;;;;;;;-144.99;100.00;52641.72;5060447;28;20003;-63
2021/11/22 00:11:49;;;;;;;;;;;;;;;-144.99;100.00;52611.16;5062338;28;19973;-63
2021/11/22 00:14:16;;;;;;;;;;;;;;;-144.99;100.00;52651.94;5057440;28;19993;-64
2021/11/22 00:16:42;;;;;;;;;;;;;;;-144.99;100.00;52627.47;5055509;28;19982;-65
2021/11/22 00:19:09;;;;;;;;;;;;;;;-144.99;100.00;52600.97;5054411;28;20031;-63
2021/11/22 00:21:36;;;;;;;;;;;;;;;-144.99;100.00;52643.78;5060709;28;19976;-63
2021/11/22 00:24:02;;;;;;;;;;;;;;;-144.99;100.00;52615.25;5059731;28;20498;-63
2021/11/22 00:26:30;;;;;;;;;;;;;;;-144.99;100.00;52672.31;5055893;28;19977;-63
2021/11/22 00:28:57;;;;;;;;;;;;;;;-144.99;100.00;52643.78;5061831;28;20027;-65
2021/11/22 00:31:24;;;;;;;;;;;;;;;-144.99;100.00;52643.78;5065296;28;20049;-63
2021/11/22 00:33:51;;;;;;;;;;;;;;;-144.99;100.00;52680.47;5055232;28;20482;-63
2021/11/22 00:36:18;;;;;;;;;;;;;;;-144.99;100.00;52686.59;5062352;28;20088;-63
2021/11/22 00:38:45;;;;;;;;;;;;;;;-144.99;100.00;52635.63;5054794;28;19996;-63
2021/11/22 00:41:11;;;;;;;;;;;;;;;-144.99;100.00;52647.84;5061153;28;20047;-63
2021/11/22 00:43:39;;;;;;;;;;;;;;;-144.99;100.00;52662.13;5059074;28;19989;-63
2021/11/22 00:46:07;;;;;;;;;;;;;;;-144.99;100.00;52625.44;5061239;28;19978;-63
2021/11/22 00:48:35;;;;;;;;;;;;;;;-144.99;100.00;52664.16;5057579;28;19977;-63
2021/11/22 00:51:01;;;;;;;;;;;;;;;-144.99;100.00;52656.00;5060411;28;20072;-63
2021/11/22 00:53:29;;;;;;;;;;;;;;;-144.99;100.00;52639.69;5082713;28;19994;-63
2021/11/22 00:55:55;;;;;;;;;;;;;;;-144.99;100.00;52629.50;5080316;28;19951;-63
2021/11/22 00:58:22;;;;;;;;;;;;;;;-144.99;100.00;52647.84;5078293;28;19977;-62
2021/11/22 01:00:50;;;;;;;;;;;;;;;-144.99;100.00;52651.94;5071455;28;19985;-63
2021/11/22 01:03:17;;;;;;;;;;;;;;;-144.99;100.00;52643.78;5073057;28;19989;-63
2021/11/22 01:05:44;;;;;;;;;;;;;;;-144.99;100.00;52672.31;5080281;28;19973;-62
2021/11/22 01:08:10;;;;;;;;;;;;;;;-144.99;100.00;52660.09;5075151;28;20470;-63
2021/11/22 01:10:38;;;;;;;;;;;;;;;-144.99;100.00;52651.94;5080934;28;20452;-63
2021/11/22 01:13:05;;;;;;;;;;;;;;;-144.99;100.00;52631.53;5072656;28;20008;-63
2021/11/22 01:15:33;;;;;;;;;;;;;;;-144.99;100.00;52656.00;5071459;28;19977;-64
2021/11/22 01:18:01;;;;;;;;;;;;;;;-144.99;100.00;52676.38;5074124;28;20003;-64
2021/11/22 01:20:32;;;;;;;;;;;;;;;-144.99;100.00;52678.44;5072163;28;19993;-64
2021/11/22 01:23:00;;;;;;;;;;;;;;;-144.99;100.00;52623.38;5066681;28;20000;-69
2021/11/22 01:25:26;;;;;;;;;;;;;;;-144.99;100.00;52617.28;5075736;28;19981;-64
2021/11/22 01:27:53;;;;;;;;;;;;;;;-144.99;100.00;52664.16;5076675;28;19973;-64
2021/11/22 01:30:20;;;;;;;;;;;;;;;-144.99;100.00;52627.47;5078600;28;20397;-64
2021/11/22 01:32:47;;;;;;;;;;;;;;;-144.99;100.00;52631.53;5068769;28;19976;-64
2021/11/22 01:35:15;;;;;;;;;;;;;;;-144.99;100.00;52660.09;5077599;28;19973;-64
2021/11/22 01:37:42;;;;;;;;;;;;;;;-144.99;100.00;52656.00;5062692;28;19973;-63
2021/11/22 01:40:09;;;;;;;;;;;;;;;-144.99;100.00;52651.94;5067740;28;19990;-63
2021/11/22 01:42:38;;;;;;;;;;;;;;;-144.99;100.00;52621.34;5073673;28;19977;-63
2021/11/22 01:45:04;;;;;;;;;;;;;;;-144.99;100.00;52623.38;5075035;28;19973;-63
2021/11/22 01:47:31;;;;;;;;;;;;;;;-144.99;100.00;52639.69;5071257;28;19988;-63
2021/11/22 01:49:57;;;;;;;;;;;;;;;-144.99;100.00;52692.69;5072233;28;19988;-63
2021/11/22 01:52:25;;;;;;;;;;;;;;;-144.99;100.00;52611.16;5071585;28;19973;-64
2021/11/22 01:54:52;;;;;;;;;;;;;;;-144.99;100.00;52627.47;5075891;28;19979;-63
2021/11/22 01:57:19;;;;;;;;;;;;;;;-144.99;100.00;52653.97;5077763;28;19996;-69
2021/11/22 01:59:45;;;;;;;;;;;;;;;-144.99;100.00;52664.16;5071225;28;20042;-63
2021/11/22 02:02:13;;;;;;;;;;;;;;;-144.99;100.00;52651.94;5073134;28;19995;-63
2021/11/22 02:04:39;;;;;;;;;;;;;;;-144.99;100.00;52651.94;5065680;28;19977;-63
2021/11/22 02:07:06;;;;;;;;;;;;;;;-144.99;100.00;52664.16;5075803;28;19977;-64
2021/11/22 02:09:34;;;;;;;;;;;;;;;-144.99;100.00;52651.94;5075011;28;19985;-64
2021/11/22 02:12:01;;;;;;;;;;;;;;;-144.99;100.00;52621.34;5076880;28;19973;-63
2021/11/22 02:14:29;;;;;;;;;;;;;;;-144.99;100.00;52688.63;5069374;28;19997;-63
2021/11/22 02:16:55;;;;;;;;;;;;;;;-144.99;100.00;52658.03;5077082;28;19973;-63
2021/11/22 02:19:22;;;;;;;;;;;;;;;-144.99;100.00;52639.69;5066815;28;20047;-63
2021/11/22 02:21:50;;;;;;;;;;;;;;;-144.99;100.00;52625.44;5079001;28;20006;-63
2021/11/22 02:24:16;;;;;;;;;;;;;;;-144.99;100.00;52660.09;5076379;28;19994;-63
2021/11/22 02:26:43;;;;;;;;;;;;;;;-144.99;100.00;52668.22;5065320;28;19974;-63
2021/11/22 02:29:10;;;;;;;;;;;;;;;-144.99;100.00;52656.00;5075879;28;19974;-63
2021/11/22 02:31:36;;;;;;;;;;;;;;;-144.99;100.00;52680.47;5074773;28;19977;-63
2021/11/22 02:34:07;;;;;;;;;;;;;;;-144.99;100.00;52639.69;5070974;28;20018;-65
2021/11/22 02:36:33;;;;;;;;;;;;;;;-144.99;100.00;52639.69;5072794;28;19987;-64
2021/11/22 02:39:02;;;;;;;;;;;;;;;-144.99;100.00;52623.38;5067415;28;19973;-64
2021/11/22 02:41:28;;;;;;;;;;;;;;;-144.99;100.00;52629.50;5073260;28;19977;-63
2021/11/22 02:43:57;;;;;;;;;;;;;;;-144.99;100.00;52666.19;5070235;28;20431;-64
2021/11/22 02:46:23;;;;;;;;;;;;;;;-144.99;100.00;52651.94;5070812;28;20016;-64
2021/11/22 02:48:50;;;;;;;;;;;;;;;-144.99;100.00;52676.38;5067222;28;20034;-64
2021/11/22 02:51:16;;;;;;;;;;;;;;;-144.99;100.00;52676.38;5060133;28;19977;-64
2021/11/22 02:53:43;;;;;;;;;;;;;;;-144.99;100.00;52647.84;5055864;28;19988;-64
2021/11/22 02:56:11;;;;;;;;;;;;;;;-144.99;100.00;52635.63;5061561;28;19973;-64
2021/11/22 02:58:39;;;;;;;;;;;;;;;-144.99;100.00;52635.63;5064975;28;19977;-69
2021/11/22 03:01:07;;;;;;;;;;;;;;;-144.99;100.00;52639.69;5054632;28;20464;-64
2021/11/22 03:03:34;;;;;;;;;;;;;;;-144.99;100.00;52664.16;5063850;28;20040;-64
2021/11/22 03:06:05;;;;;;;;;;;;;;;-144.99;100.00;52694.72;5064851;28;19977;-65
2021/11/22 03:08:31;;;;;;;;;;;;;;;-144.99;100.00;52639.69;5064239;28;20503;-66
2021/11/22 03:10:58;;;;;;;;;;;;;;;-144.99;100.00;52676.38;5055245;28;20357;-66
2021/11/22 03:13:26;;;;;;;;;;;;;;;-144.99;100.00;52680.47;5058679;28;19993;-66
2021/11/22 03:15:52;;;;;;;;;;;;;;;-144.99;100.00;52672.31;5054425;28;19977;-67
2021/11/22 03:18:19;;;;;;;;;;;;;;;-144.99;100.00;52623.38;5059010;28;19973;-67
2021/11/22 03:20:45;;;;;;;;;;;;;;;-144.99;100.00;52607.09;5061128;28;19989;-66
2021/11/22 03:23:12;;;;;;;;;;;;;;;-144.99;100.00;52629.50;5064742;28;19993;-65
2021/11/22 03:25:39;;;;;;;;;;;;;;;-144.99;100.00;52696.78;5066811;28;19977;-67
2021/11/22 03:28:06;;;;;;;;;;;;;;;-144.99;100.00;52635.63;5076223;28;19973;-63
2021/11/22 03:30:34;;;;;;;;;;;;;;;-144.99;100.00;52668.22;5073597;28;20031;-65
2021/11/22 03:33:01;;;;;;;;;;;;;;;-144.99;100.00;52615.25;5065325;28;20464;-63
2021/11/22 03:35:27;;;;;;;;;;;;;;;-144.99;100.00;52635.63;5058629;28;20378;-64
2021/11/22 03:37:54;;;;;;;;;;;;;;;-144.99;100.00;52647.84;5058464;28;20234;-63
2021/11/22 03:40:21;;;;;;;;;;;;;;;-144.99;100.00;52649.88;5055943;28;20304;-63
2021/11/22 03:42:59;;;;;;;;;;;;;;;-144.99;100.00;52637.66;5064452;28;19989;-63
2021/11/22 03:45:26;;;;;;;;;;;;;;;-144.99;100.00;52641.72;5061855;28;20469;-64
2021/11/22 03:47:54;;;;;;;;;;;;;;;-144.99;100.00;52635.63;5056503;28;20018;-64
2021/11/22 03:50:20;;;;;;;;;;;;;;;-144.99;100.00;52672.31;5053630;28;19974;-63
2021/11/22 03:52:47;;;;;;;;;;;;;;;-144.99;100.00;52631.53;5063627;28;20032;-64
2021/11/22 03:55:14;;;;;;;;;;;;;;;-144.99;100.00;52680.47;5060457;28;20027;-64
2021/11/22 03:57:40;;;;;;;;;;;;;;;-144.99;100.00;52619.31;5054416;28;19977;-64
2021/11/22 04:00:07;;;;;;;;;;;;;;;-144.99;100.00;52639.69;5052671;28;19997;-64
2021/11/22 04:02:34;;;;;;;;;;;;;;;-144.99;100.00;52662.13;5054398;28;20292;-64
2021/11/22 04:05:02;;;;;;;;;;;;;;;-144.99;100.00;52631.53;5063786;28;19988;-63
2021/11/22 04:07:28;;;;;;;;;;;;;;;-144.99;100.00;52656.00;5063123;28;20030;-63
2021/11/22 04:09:56;;;;;;;;;;;;;;;-144.99;100.00;52627.47;5057389;28;20022;-63
2021/11/22 04:12:23;;;;;;;;;;;;;;;-144.99;100.00;52660.09;5062692;28;19977;-63
2021/11/22 04:14:50;;;;;;;;;;;;;;;-144.99;100.00;52639.69;5055245;28;20442;-63
2021/11/22 04:17:16;;;;;;;;;;;;;;;-144.99;100.00;52615.25;5058827;28;20016;-63
2021/11/22 04:19:43;;;;;;;;;;;;;;;-144.99;100.00;52684.53;5056415;28;20003;-63
2021/11/22 04:22:11;;;;;;;;;;;;;;;-144.99;100.00;52639.69;5061522;28;19973;-63
2021/11/22 04:24:38;;;;;;;;;;;;;;;-144.99;100.00;52668.22;5061584;28;19999;-66
2021/11/22 04:27:08;;;;;;;;;;;;;;;-144.99;100.00;52664.16;5056241;28;20050;-63
2021/11/22 04:29:34;;;;;;;;;;;;;;;-144.99;100.00;52627.47;5062764;28;19981;-63
2021/11/22 04:32:01;;;;;;;;;;;;;;;-144.99;100.00;52639.69;5054901;28;19973;-64
2021/11/22 04:34:27;;;;;;;;;;;;;;;-144.99;100.00;52633.59;5053025;28;19993;-65
2021/11/22 04:36:54;;;;;;;;;;;;;;;-144.99;100.00;52651.94;5064273;28;19973;-63
2021/11/22 04:39:22;;;;;;;;;;;;;;;-144.99;100.00;52631.53;5053600;28;20147;-63
2021/11/22 04:41:48;;;;;;;;;;;;;;;-144.99;100.00;52588.75;5074660;28;19984;-62
2021/11/22 04:44:15;;;;;;;;;;;;;;;-144.99;100.00;52647.84;5073653;28;20011;-62
2021/11/22 04:46:41;;;;;;;;;;;;;;;-144.99;100.00;52635.63;5058670;28;20079;-63
2021/11/22 04:49:08;;;;;;;;;;;;;;;-144.99;100.00;52619.31;5069170;28;20027;-62
2021/11/22 04:51:35;;;;;;;;;;;;;;;-144.99;100.00;52637.66;5071519;28;19973;-64
2021/11/22 04:54:01;;;;;;;;;;;;;;;-144.99;100.00;52607.09;5071233;28;19989;-65
2021/11/22 04:56:29;;;;;;;;;;;;;;;-144.99;100.00;52603.00;5070222;28;19977;-65
2021/11/22 04:58:56;;;;;;;;;;;;;;;-144.99;100.00;52643.78;5074515;28;19981;-65
2021/11/22 05:01:22;;;;;;;;;;;;;;;-144.99;100.00;52631.53;5066007;28;20001;-65
2021/11/22 05:03:50;;;;;;;;;;;;;;;-144.99;100.00;52649.88;5075813;28;19988;-65
2021/11/22 05:06:17;;;;;;;;;;;;;;;-144.99;100.00;52639.69;5078749;28;19977;-63
2021/11/22 05:08:44;;;;;;;;;;;;;;;-144.99;100.00;52639.69;5080824;28;19977;-64
2021/11/22 05:11:10;;;;;;;;;;;;;;;-144.99;100.00;52611.16;5078025;28;20039;-64
2021/11/22 05:13:38;;;;;;;;;;;;;;;-144.99;100.00;52631.53;5080223;22;20004;-63
2021/11/22 05:16:05;;;;;;;;;;;;;;;-144.99;100.00;52660.09;5048571;28;20027;-63
2021/11/22 05:18:31;;;;;;;;;;;;;;;-144.99;100.00;52615.25;5048899;28;20130;-61
2021/11/22 05:20:58;;;;;;;;;;;;;;;-144.99;100.00;52656.00;5047295;28;19989;-59
2021/11/22 05:23:24;;;;;;;;;;;;;;;-144.99;100.00;52647.84;5038320;28;20088;-62
2021/11/22 05:25:51;;;;;;;;;;;;;;;-144.99;100.00;52684.53;5047382;28;19973;-62
2021/11/22 05:28:19;;;;;;;;;;;;;;;-144.99;100.00;52668.22;5047957;28;19977;-63
2021/11/22 05:30:46;;;;;;;;;;;;;;;-144.99;100.00;52639.69;5046010;28;19996;-62
2021/11/22 05:33:13;;;;;;;;;;;;;;;-144.99;100.00;52637.66;5046418;28;20443;-62
2021/11/22 05:35:40;;;;;;;;;;;;;;;-144.99;100.00;52647.84;5045508;28;19980;-62
2021/11/22 05:38:08;;;;;;;;;;;;;;;-144.99;100.00;52668.22;5048497;28;20392;-62
2021/11/22 05:40:34;;;;;;;;;;;;;;;-144.99;100.00;52639.69;5042665;28;19997;-62
2021/11/22 05:43:01;;;;;;;;;;;;;;;-144.99;100.00;52635.63;5041781;28;20031;-62
2021/11/22 05:45:28;;;;;;;;;;;;;;;-144.99;100.00;52607.09;5048429;28;19977;-64
2021/11/22 05:47:55;;;;;;;;;;;;;;;-144.99;100.00;52635.63;5044951;28;19967;-66
2021/11/22 05:50:23;;;;;;;;;;;;;;;-144.99;100.00;52631.53;5046266;28;20072;-67
2021/11/22 05:52:51;;;;;;;;;;;;;;;-144.99;100.00;52615.25;5049030;28;20088;-66
2021/11/22 05:55:27;;;;;;;;;;;;;;;-144.99;100.00;52631.53;5036344;28;20015;-66
2021/11/22 05:57:53;;;;;;;;;;;;;;;-144.99;100.00;52603.00;5039071;28;20002;-66
2021/11/22 06:00:20;;;;;;;;;;;;;;;-144.99;100.00;52639.69;5047003;28;20068;-66
2021/11/22 06:02:48;;;;;;;;;;;;;;;-144.99;100.00;52643.78;5046647;28;20043;-66
2021/11/22 06:05:16;;;;;;;;;;;;;;;-144.99;100.00;52670.28;4346079;28;10000735;-65
2021/11/22 06:07:43;;;;;;;;;;;;;;;-144.99;100.00;52641.72;5041022;28;20201;-65
2021/11/22 06:10:09;;;;;;;;;;;;;;;-144.99;100.00;52660.09;5039983;28;20039;-65
2021/11/22 06:12:36;;;;;;;;;;;;;;;-144.99;100.00;52647.84;5041831;28;20400;-65
2021/11/22 06:15:02;;;;;;;;;;;;;;;-144.99;100.00;52635.63;5044761;28;19989;-66
2021/11/22 06:17:29;;;;;;;;;;;;;;;-144.99;100.00;52639.69;5040176;28;20013;-66
2021/11/22 06:19:56;;;;;;;;;;;;;;;-144.99;100.00;52643.78;5044616;28;19984;-66
2021/11/22 06:22:24;;;;;;;;;;;;;;;-144.99;100.00;52635.63;5036557;28;20038;-66
2021/11/22 06:24:50;;;;;;;;;;;;;;;-144.99;100.00;52627.47;5034254;28;19989;-66
2021/11/22 06:27:17;;;;;;;;;;;;;;;-144.99;100.00;52603.00;5041687;28;20519;-66
2021/11/22 06:29:44;;;;;;;;;;;;;;;-144.99;100.00;52651.94;5045366;28;20062;-66
2021/11/22 06:32:11;;;;;;;;;;;;;;;-144.99;100.00;52641.72;5048329;28;20024;-66
2021/11/22 06:34:38;;;;;;;;;;;;;;;-144.99;100.00;52643.78;5047043;28;20054;-66
2021/11/22 06:37:04;;;;;;;;;;;;;;;-144.99;100.00;52653.97;5044153;28;20353;-66
2021/11/22 06:39:32;;;;;;;;;;;;;;;-144.99;100.00;52656.00;5043235;28;20491;-66
2021/11/22 06:41:59;;;;;;;;;;;;;;;-144.99;100.00;52619.31;5045980;28;20519;-66
2021/11/22 06:44:25;;;;;;;;;;;;;;;-144.99;100.00;52623.38;5048043;28;20005;-66
2021/11/22 06:46:52;;;;;;;;;;;;;;;-144.99;100.00;52635.63;5048001;28;20070;-66
2021/11/22 06:49:19;;;;;;;;;;;;;;;-144.99;100.00;52627.47;5044869;28;20412;-66
2021/11/22 06:51:46;;;;;;;;;;;;;;;-144.99;100.00;52672.31;5046081;28;20430;-66
2021/11/22 06:54:12;;;;;;;;;;;;;;;-144.99;100.00;52635.63;5049373;28;20365;-66
2021/11/22 06:56:40;;;;;;;;;;;;;;;-144.99;100.00;52598.94;5046014;28;20027;-66
2021/11/22 06:59:07;;;;;;;;;;;;;;;-144.99;100.00;52643.78;5047238;28;20105;-66
2021/11/22 07:01:33;;;;;;;;;;;;;;;-144.99;100.00;52639.69;5046786;28;20422;-66
2021/11/22 07:04:00;;;;;;;;;;;;;;;-144.99;100.00;52680.47;5046083;28;20050;-66
2021/11/22 07:06:27;;;;;;;;;;;;;;;-144.99;100.00;52635.63;5047793;28;20144;-67
2021/11/22 07:08:53;;;;;;;;;;;;;;;-144.99;100.00;52656.00;5042029;28;20186;-66
2021/11/22 07:11:21;;;;;;;;;;;;;;;-144.99;100.00;52627.47;5046349;28;20677;-66
2021/11/22 07:13:50;;;;;;;;;;;;;;;-144.99;100.00;52611.16;5040667;28;19993;-67
2021/11/22 07:16:16;;;;;;;;;;;;;;;-144.99;100.00;52623.38;5047751;28;20342;-68
2021/11/22 07:18:43;;;;;;;;;;;;;;;-144.99;100.00;52656.00;5041031;28;20042;-66
2021/11/22 07:21:10;;;;;;;;;;;;;;;-144.99;100.00;52615.25;5045835;28;20036;-66
2021/11/22 07:23:37;;;;;;;;;;;;;;;-144.99;100.00;52631.53;5043496;28;20001;-66
2021/11/22 07:26:04;;;;;;;;;;;;;;;-144.99;100.00;52611.16;5046735;28;20035;-66
2021/11/22 07:28:31;;;;;;;;;;;;;;;-144.99;100.00;52664.16;5044969;28;20004;-67
2021/11/22 07:30:59;;;;;;;;;;;;;;;-144.99;100.00;52627.47;5047042;28;20430;-66
2021/11/22 07:33:25;;;;;;;;;;;;;;;-144.99;100.00;52633.59;5044067;28;20032;-65
2021/11/22 07:35:52;;;;;;;;;;;;;;;-144.99;100.00;52607.09;5038259;28;19977;-65
2021/11/22 07:38:19;;;;;;;;;;;;;;;-144.99;100.00;52594.84;5047057;28;19952;-65
2021/11/22 07:40:46;;;;;;;;;;;;;;;-144.99;100.00;52611.16;5042772;28;20549;-65
2021/11/22 07:43:14;;;;;;;;;;;;;;;-144.99;100.00;52643.78;5044855;28;20423;-65
2021/11/22 07:45:41;;;;;;;;;;;;;;;-144.99;100.00;52627.47;5039569;28;19977;-64
2021/11/22 07:48:09;;;;;;;;;;;;;;;-144.99;100.00;52619.31;5044754;28;20047;-64
2021/11/22 07:50:35;;;;;;;;;;;;;;;-144.99;100.00;52564.28;5042904;28;19981;-64
2021/11/22 07:53:02;;;;;;;;;;;;;;;-144.99;100.00;52647.84;5046957;28;20464;-65
2021/11/22 07:55:28;;;;;;;;;;;;;;;-144.99;100.00;52639.69;5046610;28;19985;-64
2021/11/22 07:57:56;;;;;;;;;;;;;;;-144.99;100.00;52611.16;5046908;28;20040;-65
2021/11/22 08:00:23;;;;;;;;;;;;;;;-144.99;100.00;52611.16;5045665;28;20118;-65
2021/11/22 08:02:50;;;;;;;;;;;;;;;-144.99;100.00;52570.38;5041837;28;20001;-65
2021/11/22 08:05:19;;;;;;;;;;;;;;;-144.99;100.00;52590.78;5048289;28;20379;-64
2021/11/22 08:07:45;;;;;;;;;;;;;;;-144.99;100.00;52605.03;5047532;28;20035;-63
2021/11/22 08:10:24;;;;;;;;;;;;;;;-144.99;100.00;52607.09;5046839;28;19977;-66
2021/11/22 08:12:52;;;;;;;;;;;;;;;-144.99;100.00;52594.84;5037588;28;20032;-64
2021/11/22 08:15:19;;;;;;;;;;;;;;;-144.99;100.00;52605.03;5036250;28;19981;-65
2021/11/22 08:17:46;;;;;;;;;;;;;;;-144.99;100.00;52611.16;5041729;28;20426;-65
2021/11/22 08:20:13;;;;;;;;;;;;;;;-144.99;100.00;52574.47;5036516;28;20013;-66
2021/11/22 08:22:41;;;;;;;;;;;;;;;-144.99;100.00;52525.56;5034969;28;20039;-67
2021/11/22 08:25:10;;;;;;;;;;;;;;;-144.99;100.00;52517.41;5040902;28;20028;-66
2021/11/22 08:27:36;;;;;;;;;;;;;;;-144.99;100.00;52566.31;5045317;28;20008;-66
2021/11/22 08:30:05;;;;;;;;;;;;;;;-144.99;100.00;52570.38;5044450;28;19992;-67
2021/11/22 08:32:31;;;;;;;;;;;;;;;-144.99;100.00;52552.03;5047290;28;20129;-67
2021/11/22 08:34:58;;;;;;;;;;;;;;;-144.99;99.50;52554.09;5042560;28;20039;-67
2021/11/22 08:37:24;;;;;;;;;;;;;;;-144.99;97.48;52566.31;5043692;28;19975;-67
2021/11/22 08:39:52;;;;;;;;;;;;;;;-144.99;94.62;52550.00;5034153;28;20035;-67
2021/11/22 08:42:19;;;;;;;;;;;;;;;-144.99;93.01;52547.97;5044939;28;19997;-67
2021/11/22 08:44:46;;;;;;;;;;;;;;;-144.99;91.75;52509.25;5043363;28;20065;-68
2021/11/22 08:47:13;;;;;;;;;;;;;;;-144.99;90.25;52550.00;5046625;28;19977;-68
2021/11/22 08:49:41;;;;;;;;;;;;;;;-144.99;88.88;52570.38;5041266;28;20398;-67
2021/11/22 08:52:08;;;;;;;;;;;;;;;-144.99;86.88;52511.28;5046875;28;19985;-67
2021/11/22 08:54:35;;;;;;;;;;;;;;;-144.99;83.01;52545.94;5037551;28;19998;-67
2021/11/22 08:57:06;;;;;;;;;;;;;;;-144.99;79.60;52537.78;5047461;28;20035;-67
2021/11/22 08:59:32;;;;;;;;;;;;;;;-144.99;78.13;52541.84;5041875;28;19996;-67
2021/11/22 09:01:59;;;;;;;;;;;;;;;-144.99;74.84;52519.44;5047348;28;19993;-67
2021/11/22 09:04:26;;;;;;;;;;;;;;;-144.99;71.87;52541.84;5044476;28;20001;-67
2021/11/22 09:06:53;;;;;;;;;;;;;;;-144.99;71.00;52509.25;5046595;28;19981;-67
2021/11/22 09:09:20;;;;;;;;;;;;;;;-144.99;69.46;52523.50;5044007;28;19985;-67
2021/11/22 09:11:46;;;;;;;;;;;;;;;-144.99;67.93;52517.41;5033586;28;20004;-67
2021/11/22 09:14:14;;;;;;;;;;;;;;;-144.99;66.76;52488.84;5043817;28;19999;-67
2021/11/22 09:16:44;;;;;;;;;;;;;;;-144.99;65.16;52541.84;5046867;28;20005;-68
2021/11/22 09:19:10;;;;;;;;;;;;;;;-144.99;64.07;52529.63;5045921;28;20047;-67
2021/11/22 09:21:37;;;;;;;;;;;;;;;-144.99;62.34;52533.69;5031933;28;20414;-67
2021/11/22 09:24:04;;;;;;;;;;;;;;;-144.99;60.33;52529.63;5046608;28;20046;-67
2021/11/22 09:26:32;;;;;;;;;;;;;;;-144.99;59.78;52492.94;5037997;28;19977;-67
2021/11/22 09:28:58;;;;;;;;;;;;;;;-144.99;57.40;52484.78;5039413;28;19978;-67
2021/11/22 09:31:26;;;;;;;;;;;;;;;-144.99;56.32;52452.16;5036562;28;19977;-67
2021/11/22 09:33:54;;;;;;;;;;;;;;;-144.99;54.11;52505.16;5040257;28;19997;-67
2021/11/22 09:36:21;;;;;;;;;;;;;;;-144.99;53.08;52472.56;5035542;28;20016;-70
2021/11/22 09:38:48;;;;;;;;;;;;;;;-144.99;51.67;52464.41;5045687;28;19996;-70
2021/11/22 09:41:14;;;;;;;;;;;;;;;-144.99;50.55;52431.78;5036231;28;19982;-71
2021/11/22 09:43:42;;;;;;;;;;;;;;;-144.99;48.46;52456.25;5028964;28;20067;-69
2021/11/22 09:46:09;;;;;;;;;;;;;;;-144.99;48.00;52448.09;5037582;28;19993;-69
2021/11/22 09:48:37;;;;;;;;;;;;;;;-144.99;46.44;52437.91;5037107;28;20377;-72
2021/11/22 09:51:03;;;;;;;;;;;;;;;-144.99;46.35;52460.31;5035337;28;20532;-69
2021/11/22 09:53:30;;;;;;;;;;;;;;;-144.99;44.63;52423.63;5044770;28;19993;-70
2021/11/22 09:55:56;;;;;;;;;;;;;;;-144.99;42.93;52386.94;5044600;28;20031;-69
2021/11/22 09:58:23;;;;;;;;;;;;;;;-144.99;41.79;52374.72;5042051;28;20123;-68
2021/11/22 10:00:52;;;;;;;;;;;;;;;-144.99;41.90;52419.56;5040983;28;20107;-68
2021/11/22 10:03:19;;;;;;;;;;;;;;;-144.99;40.51;52329.88;5048467;28;20130;-69
2021/11/22 10:05:54;;;;;;;;;;;;;;;-144.99;39.52;52297.25;5050220;28;19977;-70
2021/11/22 10:08:22;;;;;;;;;;;;;;;-144.99;38.55;52317.66;5046502;28;20398;-68
2021/11/22 10:10:50;;;;;;;;;;;;;;;-144.99;37.99;52378.78;5050295;28;19988;-68
2021/11/22 10:13:34;;;;;;;;;;;;;;;-144.99;37.98;52395.09;5044719;28;19997;-68
2021/11/22 10:16:01;;;;;;;;;;;;;;;-144.99;38.99;52456.25;5050147;28;19985;-68
2021/11/22 10:18:29;;;;;;;;;;;;;;;-144.99;39.94;52417.53;5039459;28;20415;-69
2021/11/22 10:21:03;;;;;;;;;;;;;;;-144.99;39.57;52321.72;5038696;28;19977;-66
2021/11/22 10:23:33;;;;;;;;;;;;;;;-144.99;38.80;52311.53;5042692;28;19996;-69
2021/11/22 10:26:00;;;;;;;;;;;;;;;-144.99;38.26;52313.56;5044264;28;19981;-67
2021/11/22 10:28:29;;;;;;;;;;;;;;;-144.99;37.74;52293.19;5046560;28;20367;-67
2021/11/22 10:30:57;;;;;;;;;;;;;;;-144.99;36.90;52315.59;5041436;28;19978;-68
2021/11/22 10:33:24;;;;;;;;;;;;;;;-144.99;35.86;52254.47;5048305;28;20460;-68
2021/11/22 10:35:53;;;;;;;;;;;;;;;-144.99;34.85;52199.44;5040457;28;19981;-67
2021/11/22 10:38:22;;;;;;;;;;;;;;;-144.99;34.39;52209.63;5049978;28;20442;-68
2021/11/22 10:40:50;;;;;;;;;;;;;;;-144.99;34.10;52225.94;5039164;28;20126;-68
2021/11/22 10:43:16;;;;;;;;;;;;;;;-144.99;33.29;52195.34;5042819;28;20032;-68
2021/11/22 10:45:44;;;;;;;;;;;;;;;-144.99;32.77;52227.97;5040606;28;19977;-67
2021/11/22 10:48:16;;;;;;;;;;;;;;;-144.99;32.75;52203.50;5040343;28;19976;-67
2021/11/22 10:50:50;;;;;;;;;;;;;;;-144.99;32.15;52211.66;5038573;28;20073;-67
2021/11/22 10:53:25;;;;;;;;;;;;;;;-144.99;32.53;52244.28;5033768;28;19994;-67
2021/11/22 10:55:53;;;;;;;;;;;;;;;-144.99;32.41;52207.59;5034280;28;20025;-67
2021/11/22 10:58:39;;;;;;;;;;;;;;;-144.99;32.71;52232.03;5046480;28;20457;-68
2021/11/22 11:01:16;;;;;;;;;;;;;;;-144.99;32.84;52236.13;5042287;28;20341;-67
2021/11/22 11:03:48;;;;;;;;;;;;;;;-144.99;31.68;52199.44;5037770;28;20045;-66
2021/11/22 11:06:15;;;;;;;;;;;;;;;-144.99;31.75;52183.13;5047670;28;19981;-66
2021/11/22 11:08:42;;;;;;;;;;;;;;;-144.99;31.20;52223.88;5049462;28;20355;-67
2021/11/22 11:11:10;;;;;;;;;;;;;;;-144.99;31.43;52223.88;5045040;28;19981;-66
2021/11/22 11:13:43;;;;;;;;;;;;;;;-144.99;31.42;52203.50;5043467;28;20009;-66
2021/11/22 11:16:11;;;;;;;;;;;;;;;-144.99;30.61;52191.28;5037674;28;19984;-66
2021/11/22 11:18:38;;;;;;;;;;;;;;;-144.99;30.45;52138.28;5048511;28;19973;-66
2021/11/22 11:21:04;;;;;;;;;;;;;;;-144.99;30.40;52187.19;5047206;28;19981;-66
2021/11/22 11:23:31;;;;;;;;;;;;;;;-144.99;29.57;52174.97;5044018;28;20001;-66
2021/11/22 11:25:57;;;;;;;;;;;;;;;-144.99;29.39;52136.25;5048723;28;20431;-66
2021/11/22 11:28:25;;;;;;;;;;;;;;;-144.99;29.36;52162.75;5048111;28;20401;-66
2021/11/22 11:30:52;;;;;;;;;;;;;;;-144.99;29.53;52183.13;5046404;28;19988;-66
2021/11/22 11:33:18;;;;;;;;;;;;;;;-144.99;29.87;52305.41;5036760;28;20028;-66
2021/11/22 11:35:46;;;;;;;;;;;;;;;-144.99;30.59;52325.81;5039626;28;19978;-66
2021/11/22 11:38:18;;;;;;;;;;;;;;;-144.99;31.91;52386.94;5045083;28;19974;-66
2021/11/22 11:41:02;;;;;;;;;;;;;;;-144.99;33.80;52452.16;5043943;28;20055;-65
2021/11/22 11:43:46;;;;;;;;;;;;;;;-144.99;35.33;52484.78;5049242;28;20009;-65
2021/11/22 11:46:18;;;;;;;;;;;;;;;-144.99;36.47;52462.34;5062711;28;19993;-64
2021/11/22 11:48:53;;;;;;;;;;;;;;;-144.99;36.83;52550.00;5060294;28;20075;-64
2021/11/22 11:51:20;;;;;;;;;;;;;;;-144.99;38.10;52545.94;5064530;28;20028;-65
2021/11/22 11:54:06;;;;;;;;;;;;;;;-144.99;38.72;52464.41;5050709;28;20067;-65
2021/11/22 11:56:34;;;;;;;;;;;;;;;-144.99;37.77;52350.25;5061306;28;20027;-65
2021/11/22 11:59:15;;;;;;;;;;;;;;;-144.99;37.08;52362.50;5060089;28;19978;-64
2021/11/22 12:01:55;;;;;;;;;;;;;;;-144.99;35.56;52366.56;5060118;28;19977;-64
2021/11/22 12:04:22;;;;;;;;;;;;;;;-144.99;34.02;52280.97;5064138;28;19993;-64
2021/11/22 12:06:49;;;;;;;;;;;;;;;-144.99;32.67;52264.66;5065733;28;20017;-65
2021/11/22 12:09:32;;;;;;;;;;;;;;;-144.99;31.87;52358.41;5065206;28;19978;-65
2021/11/22 12:12:00;;;;;;;;;;;;;;;-144.99;32.43;52439.94;5062746;28;19977;-64
2021/11/22 12:14:57;;;;;;;;;;;;;;;-144.99;34.23;52393.06;5058145;28;20445;-65
2021/11/22 12:17:42;;;;;;;;;;;;;;;-144.99;34.38;52329.88;4975506;28;20014;-64
2021/11/22 12:20:11;;;;;;;;;;;;;;;-144.99;33.28;52311.53;5040862;28;20462;-64
2021/11/22 12:22:39;;;;;;;;;;;;;;;-144.99;32.37;52285.03;5039177;28;19989;-65
2021/11/22 12:25:07;;;;;;;;;;;;;;;-144.99;31.62;52260.56;5040489;28;19981;-65